createdAt,value
2023-03-31T00:02:13.329Z,10.89
2023-03-31T00:04:46.733Z,10.88
2023-03-31T00:07:16.434Z,10.89
2023-03-31T00:09:46.667Z,10.91
2023-03-31T00:12:17.246Z,10.93
2023-03-31T00:14:44.662Z,10.92
2023-03-31T00:17:12.184Z,10.90
2023-03-31T00:19:41.741Z,10.90
2023-03-31T00:22:09.328Z,10.89
2023-03-31T00:24:36.681Z,10.88
2023-03-31T00:27:05.446Z,10.90
2023-03-31T00:29:33.597Z,10.93
2023-03-31T00:32:01.462Z,10.96
2023-03-31T00:34:28.563Z,10.99
2023-03-31T00:36:57.915Z,11.00
2023-03-31T00:39:25.057Z,10.98
2023-03-31T00:41:52.235Z,10.97
2023-03-31T00:44:27.691Z,10.97
2023-03-31T00:47:20.123Z,10.99
2023-03-31T00:49:50.623Z,11.02
2023-03-31T00:52:21.934Z,11.03
2023-03-31T00:54:54.419Z,10.99
2023-03-31T00:57:23.855Z,10.96
2023-03-31T00:59:57.414Z,10.92
2023-03-31T01:02:28.944Z,10.89
2023-03-31T01:04:59.585Z,10.84
2023-03-31T01:07:46.379Z,10.78
2023-03-31T01:10:14.494Z,10.74
2023-03-31T01:12:46.032Z,10.77
2023-03-31T01:15:14.844Z,10.77
2023-03-31T01:17:47.523Z,10.74
2023-03-31T01:20:38.587Z,10.73
2023-03-31T01:23:20.498Z,10.72
2023-03-31T01:26:01.484Z,10.71
2023-03-31T01:28:38.851Z,10.73
2023-03-31T01:31:14.969Z,10.73
2023-03-31T01:34:21.060Z,10.72
2023-03-31T01:37:11.472Z,10.74
2023-03-31T01:40:16.313Z,10.75
2023-03-31T01:42:57.622Z,10.73
2023-03-31T01:45:57.642Z,10.73
2023-03-31T01:48:49.199Z,10.73
2023-03-31T01:51:22.695Z,10.70
2023-03-31T01:54:19.200Z,10.69
2023-03-31T01:57:19.359Z,10.68
2023-03-31T02:00:09.739Z,10.67
2023-03-31T02:02:41.199Z,10.68
2023-03-31T02:05:16.020Z,10.67
2023-03-31T02:08:06.522Z,10.69
2023-03-31T02:10:35.370Z,10.68
2023-03-31T02:13:04.120Z,10.68
2023-03-31T02:15:38.194Z,10.68
2023-03-31T02:18:11.340Z,10.69
2023-03-31T02:20:43.773Z,10.70
2023-03-31T02:23:14.016Z,10.69
2023-03-31T02:25:53.737Z,10.68
2023-03-31T02:28:26.500Z,10.68
2023-03-31T02:31:07.166Z,10.65
2023-03-31T02:33:34.214Z,10.66
2023-03-31T02:36:01.353Z,10.65
2023-03-31T02:38:31.643Z,10.65
2023-03-31T02:40:58.901Z,10.65
2023-03-31T02:43:26.665Z,10.66
2023-03-31T02:45:53.571Z,10.67
2023-03-31T02:48:25.991Z,10.66
2023-03-31T02:51:08.735Z,10.67
2023-03-31T02:53:50.918Z,10.69
2023-03-31T02:56:33.254Z,10.70
2023-03-31T02:59:26.004Z,10.71
2023-03-31T03:02:01.811Z,10.70
2023-03-31T03:04:49.792Z,10.71
2023-03-31T03:07:42.850Z,10.76
2023-03-31T03:10:36.502Z,10.75
2023-03-31T03:13:19.315Z,10.73
2023-03-31T03:15:50.870Z,10.75
2023-03-31T03:18:18.378Z,10.74
2023-03-31T03:20:51.033Z,10.74
2023-03-31T03:23:18.728Z,10.78
2023-03-31T03:25:46.985Z,10.75
2023-03-31T03:28:14.166Z,10.74
2023-03-31T03:30:41.402Z,10.74
2023-03-31T03:33:08.500Z,10.75
2023-03-31T03:35:36.252Z,10.72
2023-03-31T03:38:03.494Z,10.72
2023-03-31T03:40:30.803Z,10.71
2023-03-31T03:42:57.933Z,10.73
2023-03-31T03:45:25.696Z,10.72
2023-03-31T03:47:52.904Z,10.72
2023-03-31T03:50:19.866Z,10.71
2023-03-31T03:52:46.844Z,10.70
2023-03-31T03:55:14.160Z,10.71
2023-03-31T03:57:41.192Z,10.75
2023-03-31T04:00:12.483Z,10.72
2023-03-31T04:02:40.583Z,10.71
2023-03-31T04:05:08.084Z,10.69
2023-03-31T04:07:35.481Z,10.68
2023-03-31T04:10:03.339Z,10.65
2023-03-31T04:12:30.965Z,10.63
2023-03-31T04:14:58.229Z,10.62
2023-03-31T04:17:32.584Z,10.62
2023-03-31T04:20:06.026Z,10.62
2023-03-31T04:22:35.529Z,10.62
2023-03-31T04:25:04.932Z,10.63
2023-03-31T04:27:35.154Z,10.62
2023-03-31T04:30:02.463Z,10.61
2023-03-31T04:32:33.061Z,10.60
2023-03-31T04:35:03.045Z,10.62
2023-03-31T04:37:34.972Z,10.61
2023-03-31T04:40:08.797Z,10.63
2023-03-31T04:42:36.593Z,10.60
2023-03-31T04:45:04.454Z,10.60
2023-03-31T04:47:31.842Z,10.66
2023-03-31T04:49:58.867Z,10.61
2023-03-31T04:52:26.065Z,10.56
2023-03-31T04:54:52.915Z,10.58
2023-03-31T04:57:21.336Z,10.58
2023-03-31T04:59:48.237Z,10.64
2023-03-31T05:02:25.278Z,10.56
2023-03-31T05:04:53.767Z,10.52
2023-03-31T05:07:20.987Z,10.54
2023-03-31T05:09:47.892Z,10.49
2023-03-31T05:12:14.796Z,10.44
2023-03-31T05:14:44.493Z,10.43
2023-03-31T05:17:11.550Z,10.59
2023-03-31T05:19:38.944Z,10.45
2023-03-31T05:22:05.885Z,10.41
2023-03-31T05:24:33.857Z,10.37
2023-03-31T05:27:01.845Z,10.36
2023-03-31T05:29:29.683Z,10.32
2023-03-31T05:31:57.095Z,10.32
2023-03-31T05:34:24.006Z,10.42
2023-03-31T05:36:56.202Z,10.36
2023-03-31T05:39:23.999Z,10.39
2023-03-31T05:41:51.631Z,10.38
2023-03-31T05:44:20.714Z,10.38
2023-03-31T05:46:47.712Z,10.39
2023-03-31T05:49:17.121Z,10.43
2023-03-31T05:51:46.739Z,10.42
2023-03-31T05:54:14.253Z,10.41
2023-03-31T05:56:41.269Z,10.44
2023-03-31T05:59:08.516Z,10.43
2023-03-31T06:01:35.608Z,10.55
2023-03-31T06:04:03.171Z,10.53
2023-03-31T06:06:30.871Z,10.54
2023-03-31T06:09:00.042Z,10.55
2023-03-31T06:11:26.802Z,10.55
2023-03-31T06:13:54.296Z,10.57
2023-03-31T06:16:21.678Z,10.58
2023-03-31T06:18:51.230Z,10.61
2023-03-31T06:21:18.730Z,10.61
2023-03-31T06:23:46.488Z,10.60
2023-03-31T06:26:16.935Z,10.60
2023-03-31T06:28:45.376Z,10.60
2023-03-31T06:31:16.108Z,10.58
2023-03-31T06:33:43.972Z,10.54
2023-03-31T06:36:14.004Z,10.58
2023-03-31T06:38:42.390Z,10.56
2023-03-31T06:41:13.213Z,10.53
2023-03-31T06:43:40.538Z,10.53
2023-03-31T06:46:08.265Z,10.54
2023-03-31T06:48:35.936Z,10.56
2023-03-31T06:51:06.261Z,10.58
2023-03-31T06:53:33.461Z,10.59
2023-03-31T06:56:00.803Z,10.61
2023-03-31T06:58:30.589Z,10.62
2023-03-31T07:00:58.718Z,10.62
2023-03-31T07:03:28.826Z,10.58
2023-03-31T07:05:57.772Z,10.58
2023-03-31T07:08:25.194Z,10.59
2023-03-31T07:11:00.497Z,10.59
2023-03-31T07:13:28.246Z,10.61
2023-03-31T07:15:56.194Z,10.62
2023-03-31T07:18:34.860Z,10.63
2023-03-31T07:21:05.086Z,10.66
2023-03-31T07:23:38.691Z,10.66
2023-03-31T07:26:09.998Z,10.66
2023-03-31T07:28:36.845Z,10.66
2023-03-31T07:31:11.688Z,10.70
2023-03-31T07:33:39.930Z,10.70
2023-03-31T07:36:11.889Z,10.67
2023-03-31T07:38:44.197Z,10.64
2023-03-31T07:41:17.642Z,10.64
2023-03-31T07:43:45.717Z,10.66
2023-03-31T07:46:27.392Z,10.63
2023-03-31T07:48:56.838Z,10.61
2023-03-31T07:51:26.074Z,10.58
2023-03-31T07:53:53.728Z,10.60
2023-03-31T07:56:25.049Z,10.62
2023-03-31T07:58:56.881Z,10.63
2023-03-31T08:01:25.992Z,10.64
2023-03-31T08:03:55.646Z,10.63
2023-03-31T08:06:24.792Z,10.65
2023-03-31T08:08:52.080Z,10.66
2023-03-31T08:11:21.122Z,10.69
2023-03-31T08:13:48.206Z,10.72
2023-03-31T08:16:15.796Z,10.74
2023-03-31T08:18:42.726Z,10.80
2023-03-31T08:21:12.379Z,10.86
2023-03-31T08:23:39.199Z,10.95
2023-03-31T08:26:16.390Z,11.07
2023-03-31T08:28:46.507Z,11.23
2023-03-31T08:31:16.465Z,11.38
2023-03-31T08:33:43.599Z,11.53
2023-03-31T08:36:11.581Z,11.65
2023-03-31T08:38:46.230Z,11.66
2023-03-31T08:41:35.163Z,11.75
2023-03-31T08:44:14.332Z,11.81
2023-03-31T08:46:43.236Z,11.86
2023-03-31T08:49:16.938Z,11.91
2023-03-31T08:51:51.434Z,11.93
2023-03-31T08:54:29.778Z,11.99
2023-03-31T08:56:57.247Z,12.04
2023-03-31T08:59:44.347Z,12.06
2023-03-31T09:02:34.660Z,12.10
2023-03-31T09:05:17.713Z,12.16
2023-03-31T09:07:50.582Z,12.11
2023-03-31T09:10:28.919Z,12.10
2023-03-31T09:13:07.569Z,12.09
2023-03-31T09:15:46.387Z,12.11
2023-03-31T09:18:38.325Z,12.07
2023-03-31T09:21:16.293Z,12.06
2023-03-31T09:23:48.613Z,12.07
2023-03-31T09:26:34.855Z,12.06
2023-03-31T09:29:07.164Z,12.11
2023-03-31T09:31:37.310Z,12.25
2023-03-31T09:34:13.349Z,12.27
2023-03-31T09:36:40.843Z,12.36
2023-03-31T09:39:12.996Z,12.38
2023-03-31T09:41:45.750Z,12.48
2023-03-31T09:44:22.526Z,12.67
2023-03-31T09:46:50.523Z,12.76
2023-03-31T09:49:27.213Z,12.89
2023-03-31T09:52:13.672Z,13.04
2023-03-31T09:54:55.386Z,13.19
2023-03-31T09:57:34.853Z,13.38
2023-03-31T10:00:13.989Z,13.53
2023-03-31T10:02:52.085Z,13.71
2023-03-31T10:05:31.894Z,13.73
2023-03-31T10:08:17.027Z,13.58
2023-03-31T10:10:50.521Z,13.36
2023-03-31T10:13:21.936Z,13.16
2023-03-31T10:15:53.305Z,13.00
2023-03-31T10:18:31.605Z,12.99
2023-03-31T10:20:58.525Z,12.94
2023-03-31T10:23:32.286Z,12.92
2023-03-31T10:26:01.684Z,12.95
2023-03-31T10:28:32.301Z,12.95
2023-03-31T10:31:04.374Z,13.02
2023-03-31T10:33:34.658Z,13.08
2023-03-31T10:36:25.564Z,13.21
2023-03-31T10:38:53.985Z,13.37
2023-03-31T10:41:24.022Z,13.48
2023-03-31T10:43:54.150Z,13.60
2023-03-31T10:46:41.436Z,13.74
2023-03-31T10:49:25.353Z,13.79
2023-03-31T10:51:57.753Z,13.69
2023-03-31T10:54:26.238Z,13.64
2023-03-31T10:56:57.715Z,13.38
2023-03-31T10:59:47.031Z,13.24
2023-03-31T11:02:42.253Z,12.92
2023-03-31T11:05:13.638Z,12.85
2023-03-31T11:07:59.791Z,12.72
2023-03-31T11:10:58.890Z,12.87
2023-03-31T11:14:10.027Z,12.91
2023-03-31T11:16:56.541Z,12.95
2023-03-31T11:19:37.983Z,12.97
2023-03-31T11:22:42.489Z,13.12
2023-03-31T11:25:56.849Z,13.25
2023-03-31T11:28:37.610Z,13.35
2023-03-31T11:31:21.512Z,13.41
2023-03-31T11:34:14.065Z,13.45
2023-03-31T11:37:21.530Z,13.38
2023-03-31T11:40:15.187Z,13.35
2023-03-31T11:42:56.096Z,13.36
2023-03-31T11:45:33.743Z,13.39
2023-03-31T11:48:07.513Z,13.52
2023-03-31T11:50:40.115Z,13.65
2023-03-31T11:53:15.512Z,13.67
2023-03-31T11:55:43.570Z,13.75
2023-03-31T11:58:20.729Z,13.87
2023-03-31T12:00:56.230Z,13.96
2023-03-31T12:03:27.009Z,14.05
2023-03-31T12:05:59.539Z,14.08
2023-03-31T12:08:38.174Z,14.19
2023-03-31T12:11:13.892Z,14.13
2023-03-31T12:13:51.238Z,14.02
2023-03-31T12:16:24.010Z,13.83
2023-03-31T12:19:11.447Z,13.74
2023-03-31T12:21:43.502Z,13.71
2023-03-31T12:24:14.553Z,13.82
2023-03-31T12:27:12.425Z,13.82
2023-03-31T12:30:01.432Z,13.84
2023-03-31T12:32:34.878Z,13.90
2023-03-31T12:35:08.436Z,13.99
2023-03-31T12:37:41.147Z,14.01
2023-03-31T12:40:26.740Z,14.12
2023-03-31T12:43:19.992Z,14.19
2023-03-31T12:46:05.136Z,14.30
2023-03-31T12:49:00.935Z,14.40
2023-03-31T12:51:46.767Z,14.63
2023-03-31T12:54:40.763Z,14.62
2023-03-31T12:57:07.487Z,14.73
2023-03-31T12:59:36.910Z,14.65
2023-03-31T13:02:10.088Z,14.81
2023-03-31T13:04:38.271Z,14.82
2023-03-31T13:07:27.392Z,14.87
2023-03-31T13:10:20.198Z,14.83
2023-03-31T13:13:16.578Z,14.83
2023-03-31T13:15:57.760Z,14.66
2023-03-31T13:18:25.793Z,14.65
2023-03-31T13:21:19.089Z,14.80
2023-03-31T13:23:47.638Z,14.85
2023-03-31T13:26:41.908Z,14.88
2023-03-31T13:29:17.580Z,14.82
2023-03-31T13:32:02.457Z,14.86
2023-03-31T13:34:32.540Z,14.82
2023-03-31T13:37:09.361Z,14.78
2023-03-31T13:39:48.850Z,14.90
2023-03-31T13:42:35.034Z,15.04
2023-03-31T13:45:38.817Z,15.18
2023-03-31T13:48:34.163Z,15.05
2023-03-31T13:51:21.256Z,15.16
2023-03-31T13:54:30.518Z,15.13
2023-03-31T13:57:33.145Z,15.15
2023-03-31T14:00:33.211Z,15.29
2023-03-31T14:03:18.515Z,15.36
2023-03-31T14:05:53.811Z,15.36
2023-03-31T14:08:53.428Z,15.42
2023-03-31T14:11:23.402Z,15.48
2023-03-31T14:14:07.577Z,15.59
2023-03-31T14:16:45.359Z,15.48
2023-03-31T14:19:18.613Z,15.49
2023-03-31T14:22:12.337Z,15.42
2023-03-31T14:24:56.542Z,15.44
2023-03-31T14:27:39.276Z,15.27
2023-03-31T14:30:38.559Z,15.06
2023-03-31T14:33:34.445Z,14.97
2023-03-31T14:36:28.421Z,14.74
2023-03-31T14:39:04.148Z,14.41
2023-03-31T14:41:31.591Z,14.12
2023-03-31T14:44:06.556Z,13.84
2023-03-31T14:46:38.819Z,13.59
2023-03-31T14:49:27.681Z,13.37
2023-03-31T14:52:00.048Z,13.06
2023-03-31T14:54:27.213Z,13.12
2023-03-31T14:56:58.479Z,13.41
2023-03-31T14:59:29.357Z,13.57
2023-03-31T15:02:01.780Z,13.59
2023-03-31T15:04:41.450Z,13.49
2023-03-31T15:07:09.827Z,13.25
2023-03-31T15:09:38.182Z,13.14
2023-03-31T15:12:13.627Z,12.97
2023-03-31T15:14:51.876Z,12.97
2023-03-31T15:17:32.453Z,13.02
2023-03-31T15:20:01.296Z,12.93
2023-03-31T15:22:30.714Z,13.04
2023-03-31T15:24:58.442Z,13.29
2023-03-31T15:27:38.115Z,13.59
2023-03-31T15:30:08.032Z,13.57
2023-03-31T15:32:38.898Z,13.52
2023-03-31T15:35:33.252Z,13.49
2023-03-31T15:38:03.301Z,13.44
2023-03-31T15:40:44.244Z,13.51
2023-03-31T15:43:20.292Z,13.64
2023-03-31T15:45:57.219Z,13.63
2023-03-31T15:48:34.515Z,13.55
2023-03-31T15:51:02.698Z,13.56
2023-03-31T15:56:46.649Z,13.39
2023-03-31T15:59:34.274Z,13.46
2023-03-31T16:02:13.585Z,13.38
2023-03-31T16:04:41.995Z,13.39
2023-03-31T16:07:29.978Z,13.48
2023-03-31T16:09:56.878Z,13.41
2023-03-31T16:12:38.103Z,13.38
2023-03-31T16:15:09.812Z,13.27
2023-03-31T16:17:43.189Z,13.22
2023-03-31T16:20:28.621Z,13.09
2023-03-31T16:22:59.635Z,13.04
2023-03-31T16:25:30.698Z,13.03
2023-03-31T16:28:01.784Z,13.05
2023-03-31T16:30:40.753Z,12.87
2023-03-31T16:33:14.740Z,12.87
2023-03-31T16:35:51.044Z,12.75
2023-03-31T16:38:18.933Z,12.59
2023-03-31T16:40:48.309Z,12.54
2023-03-31T16:43:34.045Z,12.49
2023-03-31T16:46:05.952Z,12.48
2023-03-31T16:48:34.391Z,12.43
2023-03-31T16:51:02.623Z,12.36
2023-03-31T16:53:34.007Z,12.34
2023-03-31T16:56:00.993Z,12.18
2023-03-31T16:58:29.426Z,12.08
2023-03-31T17:01:02.477Z,12.09
2023-03-31T17:03:29.841Z,12.01
2023-03-31T17:05:59.428Z,11.98
2023-03-31T17:08:27.871Z,11.91
2023-03-31T17:11:04.089Z,11.90
2023-03-31T17:13:32.504Z,11.86
2023-03-31T17:18:47.275Z,11.78
2023-03-31T17:21:19.414Z,11.71
2023-03-31T17:23:49.886Z,11.70
2023-03-31T17:26:17.959Z,11.58
2023-03-31T17:28:45.650Z,11.53
2023-03-31T17:31:21.453Z,11.51
2023-03-31T17:33:51.760Z,11.47
2023-03-31T17:36:19.465Z,11.36
2023-03-31T17:38:47.125Z,11.32
2023-03-31T17:41:14.353Z,11.32
2023-03-31T17:43:45.606Z,11.26
2023-03-31T17:46:13.442Z,11.27
2023-03-31T17:48:50.425Z,11.21
2023-03-31T17:51:19.630Z,11.22
2023-03-31T17:53:48.123Z,11.19
2023-03-31T17:56:16.825Z,11.15
2023-03-31T17:58:44.214Z,11.15
2023-03-31T18:01:12.586Z,11.13
2023-03-31T18:03:40.448Z,11.13
2023-03-31T18:06:11.179Z,11.16
2023-03-31T18:08:41.132Z,11.23
2023-03-31T18:11:09.290Z,11.27
2023-03-31T18:13:37.492Z,11.28
2023-03-31T18:16:09.639Z,11.20
2023-03-31T18:18:37.908Z,11.20
2023-03-31T18:21:10.250Z,11.17
2023-03-31T18:23:38.056Z,11.17
2023-03-31T18:26:07.205Z,11.12
2023-03-31T18:28:34.407Z,11.13
2023-03-31T18:31:05.908Z,11.14
2023-03-31T18:33:32.809Z,11.12
2023-03-31T18:36:00.732Z,11.06
2023-03-31T18:38:28.244Z,11.04
2023-03-31T18:40:55.317Z,11.05
2023-03-31T18:43:24.590Z,11.05
2023-03-31T18:45:55.200Z,11.07
2023-03-31T18:48:23.184Z,11.08
2023-03-31T18:50:54.246Z,11.12
2023-03-31T18:53:23.132Z,11.22
2023-03-31T18:55:58.567Z,11.22
2023-03-31T18:58:30.878Z,11.25
2023-03-31T19:00:58.820Z,11.29
2023-03-31T19:03:28.573Z,11.38
2023-03-31T19:06:10.957Z,11.36
2023-03-31T19:08:38.731Z,11.38
2023-03-31T19:11:11.743Z,11.36
2023-03-31T19:13:40.082Z,11.37
2023-03-31T19:16:06.973Z,11.39
2023-03-31T19:18:34.387Z,11.34
2023-03-31T19:21:02.026Z,11.37
2023-03-31T19:23:31.039Z,11.29
2023-03-31T19:25:59.515Z,11.19
2023-03-31T19:28:27.789Z,11.12
2023-03-31T19:30:58.681Z,11.05
2023-03-31T19:33:27.681Z,11.03
2023-03-31T19:35:54.982Z,10.91
2023-03-31T19:38:22.634Z,10.80
2023-03-31T19:40:50.045Z,10.79
2023-03-31T19:43:23.979Z,10.70
2023-03-31T19:45:56.936Z,10.63
2023-03-31T19:48:26.321Z,10.61
2023-03-31T19:50:56.237Z,10.61
2023-03-31T19:53:23.917Z,10.62
2023-03-31T19:56:10.845Z,10.64
2023-03-31T19:58:38.541Z,10.61
2023-03-31T20:01:08.578Z,10.66
2023-03-31T20:03:36.073Z,10.55
2023-03-31T20:06:12.255Z,10.53
2023-03-31T20:08:42.531Z,10.46
2023-03-31T20:11:12.557Z,10.37
2023-03-31T20:13:42.071Z,10.39
2023-03-31T20:16:14.142Z,10.33
2023-03-31T20:18:49.480Z,10.33
2023-03-31T20:21:20.172Z,10.29
2023-03-31T20:23:47.923Z,10.34
2023-03-31T20:26:18.945Z,10.29
2023-03-31T20:28:47.967Z,10.26
2023-03-31T20:31:21.295Z,10.30
2023-03-31T20:33:49.107Z,10.30
2023-03-31T20:36:19.564Z,10.30
2023-03-31T20:38:51.273Z,10.32
2023-03-31T20:41:21.196Z,10.31
2023-03-31T20:43:51.054Z,10.42
2023-03-31T20:46:18.540Z,10.37
2023-03-31T20:48:48.128Z,10.35
2023-03-31T20:51:18.511Z,10.35
2023-03-31T20:53:52.779Z,10.36
2023-03-31T20:56:35.479Z,10.39
2023-03-31T20:59:04.857Z,10.43
2023-03-31T21:01:34.131Z,10.38
2023-03-31T21:04:02.946Z,10.32
2023-03-31T21:06:38.268Z,10.35
2023-03-31T21:09:05.829Z,10.34
2023-03-31T21:11:33.093Z,10.33
2023-03-31T21:14:00.925Z,10.29
2023-03-31T21:16:27.993Z,10.25
2023-03-31T21:18:55.091Z,10.33
2023-03-31T21:21:24.548Z,10.30
2023-03-31T21:23:53.801Z,10.31
2023-03-31T21:26:21.924Z,10.34
2023-03-31T21:28:54.234Z,10.29
2023-03-31T21:31:24.357Z,10.38
2023-03-31T21:33:52.940Z,10.39
2023-03-31T21:36:23.139Z,10.41
2023-03-31T21:38:53.042Z,10.38
2023-03-31T21:41:23.104Z,10.41
2023-03-31T21:43:51.322Z,10.46
2023-03-31T21:46:24.501Z,10.44
2023-03-31T21:48:51.584Z,10.46
2023-03-31T21:51:22.189Z,10.41
2023-03-31T21:53:53.205Z,10.41
2023-03-31T21:56:20.572Z,10.44
2023-03-31T21:58:47.684Z,10.42
2023-03-31T22:01:14.874Z,10.40
2023-03-31T22:03:42.718Z,10.43
2023-03-31T22:06:10.583Z,10.47
2023-03-31T22:08:38.752Z,10.39
2023-03-31T22:11:08.238Z,10.39
2023-03-31T22:13:35.856Z,10.37
2023-03-31T22:16:04.138Z,10.36
2023-03-31T22:18:31.307Z,10.35
2023-03-31T22:21:00.966Z,10.32
2023-03-31T22:23:28.497Z,10.32
2023-03-31T22:25:55.872Z,10.27
2023-03-31T22:28:23.145Z,10.28
2023-03-31T22:30:50.564Z,10.23
2023-03-31T22:33:17.530Z,10.21
2023-03-31T22:35:45.166Z,10.19
2023-03-31T22:38:13.994Z,10.25
2023-03-31T22:40:41.012Z,10.15
2023-03-31T22:43:08.662Z,10.15
2023-03-31T22:45:37.838Z,10.08
2023-03-31T22:48:09.710Z,10.07
2023-03-31T22:50:39.547Z,10.04
2023-03-31T22:53:08.581Z,10.06
2023-03-31T22:55:44.221Z,10.09
2023-03-31T22:58:24.513Z,10.23
2023-03-31T23:00:55.983Z,10.29
2023-03-31T23:03:23.402Z,10.23
2023-03-31T23:05:50.996Z,10.31
2023-03-31T23:08:19.424Z,10.23
2023-03-31T23:10:57.962Z,10.28
2023-03-31T23:13:27.399Z,10.27
2023-03-31T23:15:56.198Z,10.19
2023-03-31T23:18:24.334Z,10.21
2023-03-31T23:20:52.414Z,10.19
2023-03-31T23:23:19.797Z,10.16
2023-03-31T23:25:46.877Z,10.14
2023-03-31T23:28:14.599Z,10.11
2023-03-31T23:30:41.786Z,10.13
2023-03-31T23:33:09.129Z,10.20
2023-03-31T23:35:38.893Z,10.13
2023-03-31T23:38:07.422Z,10.14
2023-03-31T23:40:37.431Z,10.11
2023-03-31T23:43:05.004Z,10.09
2023-03-31T23:45:32.425Z,10.15
2023-03-31T23:48:00.464Z,10.11
2023-03-31T23:50:31.388Z,10.04
2023-03-31T23:52:59.556Z,10.01
2023-03-31T23:55:27.910Z,10.10
2023-03-31T23:57:56.582Z,10.02
